sensor_id;sensor_type;location;lat;lon;timestamp;temperature;humidity
67165;SHT31;54093;50.014;19.984;2022-12-08T00:06:55;2.87;74.55
67165;SHT31;54093;50.014;19.984;2022-12-08T00:16:34;2.87;74.58
67165;SHT31;54093;50.014;19.984;2022-12-08T00:25:55;2.93;74.17
67165;SHT31;54093;50.014;19.984;2022-12-08T00:35:16;2.93;74.51
67165;SHT31;54093;50.014;19.984;2022-12-08T00:44:37;2.91;74.49
67165;SHT31;54093;50.014;19.984;2022-12-08T00:53:58;2.90;73.89
67165;SHT31;54093;50.014;19.984;2022-12-08T01:03:19;2.93;74.76
67165;SHT31;54093;50.014;19.984;2022-12-08T01:12:40;2.87;74.22
67165;SHT31;54093;50.014;19.984;2022-12-08T01:22:01;2.85;74.27
67165;SHT31;54093;50.014;19.984;2022-12-08T01:31:21;2.84;74.40
67165;SHT31;54093;50.014;19.984;2022-12-08T01:40:42;2.81;74.36
67165;SHT31;54093;50.014;19.984;2022-12-08T01:50:05;2.73;74.96
67165;SHT31;54093;50.014;19.984;2022-12-08T01:59:29;2.63;75.63
67165;SHT31;54093;50.014;19.984;2022-12-08T02:08:52;2.53;75.52
67165;SHT31;54093;50.014;19.984;2022-12-08T02:46:51;2.23;76.70
67165;SHT31;54093;50.014;19.984;2022-12-08T03:16:00;2.11;77.35
67165;SHT31;54093;50.014;19.984;2022-12-08T03:25:25;2.16;77.36
67165;SHT31;54093;50.014;19.984;2022-12-08T03:34:48;2.15;77.67
67165;SHT31;54093;50.014;19.984;2022-12-08T03:44:09;2.19;77.53
67165;SHT31;54093;50.014;19.984;2022-12-08T03:53:30;2.16;77.49
67165;SHT31;54093;50.014;19.984;2022-12-08T04:02:51;2.15;77.78
67165;SHT31;54093;50.014;19.984;2022-12-08T04:12:11;2.16;78.08
67165;SHT31;54093;50.014;19.984;2022-12-08T04:21:33;2.21;77.32
67165;SHT31;54093;50.014;19.984;2022-12-08T04:30:54;2.25;77.36
67165;SHT31;54093;50.014;19.984;2022-12-08T04:40:15;2.26;76.91
67165;SHT31;54093;50.014;19.984;2022-12-08T04:49:36;2.29;77.15
67165;SHT31;54093;50.014;19.984;2022-12-08T04:58:57;2.26;76.81
67165;SHT31;54093;50.014;19.984;2022-12-08T05:08:18;2.22;77.02
67165;SHT31;54093;50.014;19.984;2022-12-08T05:17:38;2.21;76.81
67165;SHT31;54093;50.014;19.984;2022-12-08T05:26:59;2.19;76.78
67165;SHT31;54093;50.014;19.984;2022-12-08T05:36:20;2.18;76.96
67165;SHT31;54093;50.014;19.984;2022-12-08T05:45:41;2.19;76.70
67165;SHT31;54093;50.014;19.984;2022-12-08T05:55:02;2.15;77.84
67165;SHT31;54093;50.014;19.984;2022-12-08T06:04:23;1.94;78.45
67165;SHT31;54093;50.014;19.984;2022-12-08T06:13:44;1.82;79.47
67165;SHT31;54093;50.014;19.984;2022-12-08T06:23:05;1.68;79.67
67165;SHT31;54093;50.014;19.984;2022-12-08T06:32:26;1.58;81.18
67165;SHT31;54093;50.014;19.984;2022-12-08T06:41:47;1.60;81.00
67165;SHT31;54093;50.014;19.984;2022-12-08T06:51:26;1.63;80.82
67165;SHT31;54093;50.014;19.984;2022-12-08T07:00:47;1.77;81.20
67165;SHT31;54093;50.014;19.984;2022-12-08T07:10:08;1.85;80.67
67165;SHT31;54093;50.014;19.984;2022-12-08T07:19:28;1.89;81.43
67165;SHT31;54093;50.014;19.984;2022-12-08T07:28:49;1.93;80.93
67165;SHT31;54093;50.014;19.984;2022-12-08T07:38:10;1.97;81.19
67165;SHT31;54093;50.014;19.984;2022-12-08T07:47:31;2.04;79.30
67165;SHT31;54093;50.014;19.984;2022-12-08T07:56:52;2.15;78.10
67165;SHT31;54093;50.014;19.984;2022-12-08T08:06:13;2.25;78.20
67165;SHT31;54093;50.014;19.984;2022-12-08T08:15:34;2.42;77.26
67165;SHT31;54093;50.014;19.984;2022-12-08T08:24:55;2.63;75.61
67165;SHT31;54093;50.014;19.984;2022-12-08T08:34:16;2.76;75.30
67165;SHT31;54093;50.014;19.984;2022-12-08T08:43:37;2.93;74.24
67165;SHT31;54093;50.014;19.984;2022-12-08T08:52:58;3.04;75.85
67165;SHT31;54093;50.014;19.984;2022-12-08T09:02:19;3.29;72.68
67165;SHT31;54093;50.014;19.984;2022-12-08T09:11:41;3.43;73.78
67165;SHT31;54093;50.014;19.984;2022-12-08T09:21:06;3.60;73.93
67165;SHT31;54093;50.014;19.984;2022-12-08T09:30:28;3.77;72.17
67165;SHT31;54093;50.014;19.984;2022-12-08T09:39:48;3.98;71.26
67165;SHT31;54093;50.014;19.984;2022-12-08T09:49:14;4.01;71.00
67165;SHT31;54093;50.014;19.984;2022-12-08T10:08:12;4.10;70.58
67165;SHT31;54093;50.014;19.984;2022-12-08T10:17:47;4.21;69.53
67165;SHT31;54093;50.014;19.984;2022-12-08T10:27:10;4.17;70.13
67165;SHT31;54093;50.014;19.984;2022-12-08T10:46:11;4.12;69.88
67165;SHT31;54093;50.014;19.984;2022-12-08T10:56:05;4.17;70.41
67165;SHT31;54093;50.014;19.984;2022-12-08T11:05:32;4.08;70.56
67165;SHT31;54093;50.014;19.984;2022-12-08T11:14:58;4.07;70.46
67165;SHT31;54093;50.014;19.984;2022-12-08T11:24:25;4.10;70.57
67165;SHT31;54093;50.014;19.984;2022-12-08T11:33:48;4.11;70.94
67165;SHT31;54093;50.014;19.984;2022-12-08T11:43:20;4.17;70.86
67165;SHT31;54093;50.014;19.984;2022-12-08T11:52:46;4.20;71.43
67165;SHT31;54093;50.014;19.984;2022-12-08T12:02:13;4.20;71.50
67165;SHT31;54093;50.014;19.984;2022-12-08T12:21:39;4.21;73.05
67165;SHT31;54093;50.014;19.984;2022-12-08T12:31:08;4.15;74.69
67165;SHT31;54093;50.014;19.984;2022-12-08T12:40:37;4.14;75.72
67165;SHT31;54093;50.014;19.984;2022-12-08T12:50:06;4.10;77.40
67165;SHT31;54093;50.014;19.984;2022-12-08T12:59:34;4.04;78.52
67165;SHT31;54093;50.014;19.984;2022-12-08T13:08:55;4.00;79.59
67165;SHT31;54093;50.014;19.984;2022-12-08T13:18:35;4.01;81.19
67165;SHT31;54093;50.014;19.984;2022-12-08T13:28:21;3.97;80.94
67165;SHT31;54093;50.014;19.984;2022-12-08T13:37:47;3.97;81.49
67165;SHT31;54093;50.014;19.984;2022-12-08T13:47:12;3.95;81.14
67165;SHT31;54093;50.014;19.984;2022-12-08T13:56:39;3.94;81.42
67165;SHT31;54093;50.014;19.984;2022-12-08T14:06:02;3.93;81.34
67165;SHT31;54093;50.014;19.984;2022-12-08T14:15:24;3.90;82.25
67165;SHT31;54093;50.014;19.984;2022-12-08T14:24:47;3.83;82.29
67165;SHT31;54093;50.014;19.984;2022-12-08T14:34:09;3.79;82.87
67165;SHT31;54093;50.014;19.984;2022-12-08T14:43:31;3.73;83.16
67165;SHT31;54093;50.014;19.984;2022-12-08T14:52:52;3.71;82.71
67165;SHT31;54093;50.014;19.984;2022-12-08T15:11:44;3.56;82.53
67165;SHT31;54093;50.014;19.984;2022-12-08T15:21:09;3.55;82.45
67165;SHT31;54093;50.014;19.984;2022-12-08T15:30:32;3.51;82.62
67165;SHT31;54093;50.014;19.984;2022-12-08T15:39:53;3.44;83.07
67165;SHT31;54093;50.014;19.984;2022-12-08T15:49:20;3.46;82.77
67165;SHT31;54093;50.014;19.984;2022-12-08T15:58:41;3.43;82.35
67165;SHT31;54093;50.014;19.984;2022-12-08T16:08:02;3.35;82.13
67165;SHT31;54093;50.014;19.984;2022-12-08T16:17:23;3.28;82.35
67165;SHT31;54093;50.014;19.984;2022-12-08T16:26:44;3.21;82.24
67165;SHT31;54093;50.014;19.984;2022-12-08T16:36:05;3.14;82.20
67165;SHT31;54093;50.014;19.984;2022-12-08T16:45:28;3.07;82.22
67165;SHT31;54093;50.014;19.984;2022-12-08T16:54:49;3.04;82.88
67165;SHT31;54093;50.014;19.984;2022-12-08T17:04:10;2.91;82.79
67165;SHT31;54093;50.014;19.984;2022-12-08T17:13:30;2.87;83.00
67165;SHT31;54093;50.014;19.984;2022-12-08T17:22:57;2.81;83.81
67165;SHT31;54093;50.014;19.984;2022-12-08T17:32:18;2.74;84.15
67165;SHT31;54093;50.014;19.984;2022-12-08T17:41:39;2.73;84.58
67165;SHT31;54093;50.014;19.984;2022-12-08T17:51:00;2.65;84.51
67165;SHT31;54093;50.014;19.984;2022-12-08T18:00:21;2.64;85.22
67165;SHT31;54093;50.014;19.984;2022-12-08T18:09:42;2.61;85.60
67165;SHT31;54093;50.014;19.984;2022-12-08T18:19:03;2.60;84.97
67165;SHT31;54093;50.014;19.984;2022-12-08T18:28:24;2.58;85.20
67165;SHT31;54093;50.014;19.984;2022-12-08T18:37:45;2.61;83.00
67165;SHT31;54093;50.014;19.984;2022-12-08T18:47:06;2.88;77.34
67165;SHT31;54093;50.014;19.984;2022-12-08T18:56:31;3.09;75.52
67165;SHT31;54093;50.014;19.984;2022-12-08T19:06:05;3.22;75.60
67165;SHT31;54093;50.014;19.984;2022-12-08T19:15:26;3.28;74.24
67165;SHT31;54093;50.014;19.984;2022-12-08T19:24:47;3.32;74.13
67165;SHT31;54093;50.014;19.984;2022-12-08T19:34:10;3.28;76.40
67165;SHT31;54093;50.014;19.984;2022-12-08T19:43:31;3.28;74.83
67165;SHT31;54093;50.014;19.984;2022-12-08T19:53:13;3.28;75.25
67165;SHT31;54093;50.014;19.984;2022-12-08T20:02:35;3.25;76.13
67165;SHT31;54093;50.014;19.984;2022-12-08T20:11:56;3.25;75.58
67165;SHT31;54093;50.014;19.984;2022-12-08T20:21:16;3.23;76.04
67165;SHT31;54093;50.014;19.984;2022-12-08T20:30:39;3.15;78.15
67165;SHT31;54093;50.014;19.984;2022-12-08T20:40:00;3.02;77.59
67165;SHT31;54093;50.014;19.984;2022-12-08T20:49:21;2.90;79.05
67165;SHT31;54093;50.014;19.984;2022-12-08T20:58:42;2.81;79.60
67165;SHT31;54093;50.014;19.984;2022-12-08T21:08:06;2.73;79.46
67165;SHT31;54093;50.014;19.984;2022-12-08T21:17:27;2.67;80.89
67165;SHT31;54093;50.014;19.984;2022-12-08T21:26:48;2.68;80.30
67165;SHT31;54093;50.014;19.984;2022-12-08T21:36:17;2.70;79.80
67165;SHT31;54093;50.014;19.984;2022-12-08T21:45:38;2.70;79.74
67165;SHT31;54093;50.014;19.984;2022-12-08T21:54:59;2.76;79.62
67165;SHT31;54093;50.014;19.984;2022-12-08T22:04:20;2.80;78.34
67165;SHT31;54093;50.014;19.984;2022-12-08T22:13:41;2.87;77.13
67165;SHT31;54093;50.014;19.984;2022-12-08T22:23:02;2.94;77.19
67165;SHT31;54093;50.014;19.984;2022-12-08T22:32:23;2.95;75.65
67165;SHT31;54093;50.014;19.984;2022-12-08T22:41:44;3.04;75.09
67165;SHT31;54093;50.014;19.984;2022-12-08T22:51:05;3.05;76.24
67165;SHT31;54093;50.014;19.984;2022-12-08T23:00:26;3.02;75.81
67165;SHT31;54093;50.014;19.984;2022-12-08T23:09:46;3.09;76.70
67165;SHT31;54093;50.014;19.984;2022-12-08T23:19:08;3.05;78.95
67165;SHT31;54093;50.014;19.984;2022-12-08T23:28:29;3.04;80.82
67165;SHT31;54093;50.014;19.984;2022-12-08T23:37:50;2.95;81.47
67165;SHT31;54093;50.014;19.984;2022-12-08T23:47:12;2.91;81.84
67165;SHT31;54093;50.014;19.984;2022-12-08T23:56:33;2.88;82.22
